Latest Weather Observations for Bundaberg

IDQ60801

Issued at 5:35 pm EST Friday 31 October 2014 (issued every 30 minutes, with the page automatically refreshed every 10 minutes)

About weather observations | Map of weather stations | Latest weather observations for QLD | Other Formats
Station Details ID: 039128 Name: BUNDABERG AERO Lat: -24.91 Lon: 152.32 Height: 30.82 m
Data from the previous 72 hours. | See also: Recent months at Bundaberg
Date/Time
EST
Temp
°C
App
Temp
°C
Dew
Point
Rel
Hum
%
Delta-T
°C
Wind Press
QNH
hPa
Press
MSL
hPa
Rain
since 9 am
mm
Dir
 
Spd
km/h
Gust
km/h
Spd
kts
Gust
kts
31/05:30pm 24.7 23.1 17.4 64 4.5 NNE 22 28 12 15 1014.7 1014.6 0.0
31/05:00pm 25.4 23.5 17.6 62 4.9 NNE 24 30 13 16 1014.5 1014.4 0.0
31/04:30pm 25.4 23.5 17.6 62 4.9 NNE 24 33 13 18 1014.4 1014.3 0.0
31/04:00pm 26.2 24.7 17.6 59 5.4 N 22 28 12 15 1014.2 1014.1 0.0
31/03:30pm 27.1 25.9 18.4 59 5.5 N 22 30 12 16 1014.3 1014.2 0.0
31/03:00pm 27.6 25.9 18.0 55 6.1 NNE 24 32 13 17 1014.3 1014.2 0.0
31/02:30pm 27.8 26.1 17.3 52 6.6 NNE 22 30 12 16 1014.3 1014.2 0.0
31/02:00pm 26.7 24.9 16.9 55 6.1 NNE 22 32 12 17 1014.5 1014.4 0.0
31/01:30pm 27.4 25.9 17.6 55 6.2 NNE 22 28 12 15 1014.8 1014.7 0.0
31/01:00pm 27.8 26.5 17.3 52 6.6 NNE 20 33 11 18 1015.2 1015.1 0.0
31/12:30pm 28.2 27.0 18.3 55 6.3 N 22 28 12 15 1015.5 1015.4 0.0
31/12:00pm 27.2 25.8 17.1 54 6.3 N 20 30 11 16 1015.7 1015.6 0.0
31/11:30am 28.8 28.1 18.3 53 6.7 N 19 28 10 15 1016.1 1016.0 0.0
31/11:00am 26.8 24.9 17.6 57 5.8 N 24 30 13 16 1016.4 1016.3 0.0
31/10:30am 27.3 27.1 17.5 55 6.2 NNE 15 28 8 15 1016.6 1016.5 0.0
31/10:00am 27.2 26.4 17.9 56 5.9 NNE 19 28 10 15 1016.8 1016.7 0.0
31/09:30am 26.1 26.4 18.0 61 5.1 N 13 19 7 10 1017.2 1017.1 0.0
31/09:00am 25.9 26.1 18.6 64 4.6 N 15 20 8 11 1017.1 1017.0 0.0
31/08:30am 26.1 26.1 18.0 61 5.1 NNE 15 20 8 11 1017.1 1017.0 0.0
31/08:00am 24.5 25.7 19.1 72 3.4 N 11 15 6 8 1017.1 1017.0 0.0
31/07:30am 24.3 26.3 20.0 77 2.8 NNW 9 17 5 9 1017.4 1017.3 0.0
31/07:00am 23.5 26.1 20.0 81 2.3 NW 6 11 3 6 1016.9 1016.8 0.0
31/06:30am 21.3 24.9 19.8 91 1.0 CALM 0 0 0 0 1016.9 1016.8 0.0
31/06:00am 19.8 21.8 19.1 96 0.4 SSW 7 9 4 5 1016.5 1016.4 0.0
31/05:30am 19.0 21.5 18.2 95 0.5 S 2 9 1 5 1015.9 1015.8 0.0
31/05:00am 18.8 21.2 18.0 95 0.5 ESE 2 6 1 3 1015.4 1015.3 0.0
31/04:30am 18.6 20.8 17.4 93 0.7 SSE 2 9 1 5 1015.4 1015.3 0.0
31/04:00am 19.3 22.3 18.5 95 0.5 CALM 0 0 0 0 1015.4 1015.3 0.0
31/03:30am 19.4 22.3 18.2 93 0.7 CALM 0 0 0 0 1015.1 1015.0 0.0
31/03:00am 19.4 22.3 18.2 93 0.7 CALM 0 0 0 0 1015.0 1014.9 0.0
31/02:30am 19.6 22.6 18.4 93 0.7 CALM 0 0 0 0 1015.1 1015.0 0.0
31/02:00am 19.8 22.7 18.3 91 0.9 WNW 0 0 0 0 1014.8 1014.7 0.0
31/01:30am 20.0 22.9 18.1 89 1.2 CALM 0 0 0 0 1015.1 1015.0 0.0
31/01:00am 21.1 24.1 19.2 89 1.2 WNW 2 6 1 3 1015.6 1015.5 0.0
31/12:30am 21.4 23.9 19.1 87 1.5 NW 4 7 2 4 1015.7 1015.6 0.0
31/12:00am 22.1 23.9 19.6 86 1.6 N 9 13 5 7 1015.4 1015.3 0.0
 
Date/Time
EST
Temp
°C
App
Temp
°C
Dew
Point
Rel
Hum
%
Delta-T
°C
Wind Press
QNH
hPa
Press
MSL
hPa
Rain
since 9 am
mm
Dir
 
Spd
km/h
Gust
km/h
Spd
kts
Gust
kts
30/11:30pm 22.0 23.0 19.5 86 1.6 NNE 13 15 7 8 1015.3 1015.2 0.0
30/11:00pm 22.3 24.1 19.5 84 1.8 NNE 9 13 5 7 1016.0 1015.9 0.0
30/10:30pm 22.6 24.0 19.6 83 1.9 NNE 11 15 6 8 1016.2 1016.1 0.0
30/10:00pm 22.6 24.3 19.4 82 2.0 N 9 13 5 7 1016.3 1016.2 0.0
30/09:30pm 22.6 23.6 19.4 82 2.0 N 13 17 7 9 1016.1 1016.0 0.0
30/09:00pm 22.6 23.8 19.0 80 2.3 N 11 15 6 8 1016.2 1016.1 0.0
30/08:30pm 22.8 23.6 19.0 79 2.4 N 13 17 7 9 1015.9 1015.8 0.0
30/08:00pm 23.0 24.2 19.0 78 2.5 N 11 15 6 8 1015.9 1015.8 0.0
30/07:30pm 23.1 24.3 19.1 78 2.5 N 11 15 6 8 1015.8 1015.7 0.0
30/07:00pm 23.3 24.1 19.0 77 2.7 NNE 13 17 7 9 1015.3 1015.2 0.0
30/06:30pm 23.5 23.6 19.2 77 2.7 NNE 17 20 9 11 1014.5 1014.4 0.0
30/06:00pm 23.8 23.5 19.1 75 3.0 NE 19 22 10 12 1014.1 1014.0 0.0
30/05:30pm 24.3 23.6 18.7 71 3.6 NE 20 24 11 13 1013.7 1013.6 0.0
30/05:00pm 25.0 24.6 19.4 71 3.6 NNE 20 24 11 13 1013.5 1013.4 0.0
30/04:30pm 25.7 25.1 18.9 66 4.3 NNE 20 28 11 15 1013.3 1013.2 0.0
30/04:00pm 27.0 26.6 18.8 60 5.3 NNE 19 30 10 16 1013.2 1013.1 0.0
30/03:30pm 27.6 26.9 18.6 58 5.8 NNE 20 32 11 17 1013.2 1013.1 0.0
30/03:00pm 27.8 26.6 17.6 53 6.4 NE 20 30 11 16 1013.3 1013.2 0.0
30/02:30pm 28.4 27.2 17.6 52 6.8 NE 20 30 11 16 1013.3 1013.2 0.0
30/02:00pm 28.3 27.2 17.8 53 6.7 NE 20 32 11 17 1013.7 1013.6 0.0
30/01:30pm 28.3 27.7 17.5 52 6.8 NE 17 24 9 13 1014.1 1014.0 0.0
30/01:00pm 28.4 28.3 17.9 53 6.7 NNE 15 20 8 11 1014.5 1014.4 0.0
30/12:30pm 27.3 26.4 18.3 58 5.7 NNE 20 26 11 14 1014.7 1014.6 0.0
30/12:00pm 27.3 27.1 18.6 59 5.6 N 17 26 9 14 1015.1 1015.0 0.0
30/11:30am 26.6 26.4 18.5 61 5.2 N 17 22 9 12 1015.7 1015.6 0.0
30/11:00am 27.1 28.8 18.1 58 5.7 WSW 6 17 3 9 1016.2 1016.1 0.0
30/10:30am 27.0 28.4 17.8 57 5.8 NNE 7 13 4 7 1016.8 1016.7 0.0
30/10:00am 25.8 26.6 17.4 59 5.2 N 9 15 5 8 1017.3 1017.2 0.0
30/09:30am 26.0 26.3 17.1 58 5.5 E 11 17 6 9 1017.3 1017.2 0.0
30/09:00am 26.3 27.1 17.4 58 5.6 E 9 19 5 10 1017.5 1017.4 0.0
30/08:30am 25.3 26.5 18.2 64 4.5 ESE 9 13 5 7 1017.5 1017.4 0.0
30/08:00am 25.4 26.6 19.8 71 3.6 ESE 13 17 7 9 1017.4 1017.3 0.0
30/07:30am 23.8 24.7 20.1 80 2.4 SE 15 19 8 10 1017.3 1017.2 0.0
30/07:00am 22.1 22.7 20.2 89 1.2 SE 17 20 9 11 1017.1 1017.0 0.0
30/06:30am 21.1 22.8 20.1 94 0.6 SSE 11 15 6 8 1016.9 1016.8 0.0
30/06:20am 20.6 22.5 19.8 95 0.5 SSE 9 13 5 7 1016.9 1016.8 0.0
30/06:00am 20.2 22.0 19.5 96 0.4 S 9 13 5 7 1016.6 1016.5 0.0
30/05:30am 19.8 21.9 19.3 97 0.3 SSE 7 9 4 5 1016.3 1016.2 0.0
30/05:00am 19.8 21.4 19.1 96 0.4 S 9 11 5 6 1015.9 1015.8 0.0
30/04:30am 19.9 21.5 19.2 96 0.4 S 9 13 5 7 1015.4 1015.3 0.0
30/04:00am 20.2 21.6 19.5 96 0.4 S 11 13 6 7 1015.2 1015.1 0.0
30/03:43am 20.2 21.9 19.4 95 0.5 S 9 11 5 6 1015.1 1015.0 0.0
30/03:30am 20.3 22.1 19.5 95 0.5 S 9 13 5 7 1014.9 1014.8 0.0
30/03:13am 20.3 22.1 19.6 96 0.4 SSE 9 11 5 6 1014.8 1014.7 0.0
30/03:00am 20.2 21.9 19.4 95 0.5 SSE 9 15 5 8 1014.8 1014.7 0.0
30/02:37am 20.2 21.9 19.4 95 0.5 S 9 13 5 7 1014.8 1014.7 0.0
30/02:30am 20.3 21.7 19.5 95 0.5 S 11 15 6 8 1014.9 1014.8 0.0
30/02:00am 20.4 22.1 19.4 94 0.6 S 9 11 5 6 1015.0 1014.9 0.0
30/01:30am 20.7 22.5 19.5 93 0.8 SSE 9 11 5 6 1015.2 1015.1 0.0
30/01:00am 21.0 22.8 19.6 92 0.9 SSE 9 13 5 7 1015.3 1015.2 0.0
30/12:30am 21.2 23.1 19.7 91 1.0 S 9 13 5 7 1015.4 1015.3 0.0
30/12:00am 21.5 23.9 20.0 91 1.0 SSE 7 9 4 5 1015.7 1015.6 0.0
 
Date/Time
EST
Temp
°C
App
Temp
°C
Dew
Point
Rel
Hum
%
Delta-T
°C
Wind Press
QNH
hPa
Press
MSL
hPa
Rain
since 9 am
mm
Dir
 
Spd
km/h
Gust
km/h
Spd
kts
Gust
kts
29/11:30pm 21.7 23.9 20.3 92 0.9 SSE 9 13 5 7 1016.0 1015.9 0.0
29/11:08pm 21.7 24.0 20.7 94 0.6 S 9 13 5 7 1016.0 1015.9 0.0
29/11:00pm 21.5 24.0 20.3 93 0.8 S 7 11 4 6 1016.0 1015.9 0.0
29/10:30pm 21.8 24.7 20.6 93 0.8 SE 6 7 3 4 1016.1 1016.0 0.0
29/10:25pm 21.8 24.7 20.6 93 0.8 SE 6 7 3 4 1016.1 1016.0 0.0
29/10:00pm 21.8 24.5 20.3 91 1.0 ESE 6 7 3 4 1016.2 1016.1 0.0
29/09:30pm 22.2 25.0 20.5 90 1.1 E 6 7 3 4 1016.0 1015.9 0.0
29/09:00pm 22.3 24.5 20.4 89 1.2 E 9 9 5 5 1016.0 1015.9 0.0
29/08:30pm 22.9 25.6 20.6 87 1.5 E 7 11 4 6 1016.0 1015.9 0.0
29/08:00pm 23.1 25.4 20.6 86 1.6 ENE 9 13 5 7 1015.7 1015.6 0.0
29/07:30pm 23.3 24.7 20.4 84 1.9 ENE 13 17 7 9 1015.3 1015.2 0.0
29/07:00pm 23.7 25.1 20.4 82 2.1 NE 13 17 7 9 1015.1 1015.0 0.0
29/06:30pm 24.0 25.0 20.3 80 2.4 NE 15 17 8 9 1014.6 1014.5 0.0
29/06:00pm 24.6 26.2 20.7 79 2.6 NNE 13 19 7 10 1014.4 1014.3 0.0
29/05:30pm 25.3 25.7 19.9 72 3.5 ENE 17 24 9 13 1013.8 1013.7 0.0
29/05:00pm 26.2 26.0 19.8 68 4.2 ENE 20 28 11 15 1013.3 1013.2 0.0
29/04:30pm 26.9 26.0 18.2 59 5.5 ENE 20 32 11 17 1012.7 1012.6 0.0
29/04:00pm 28.0 27.1 19.0 58 5.8 ENE 22 32 12 17 1012.4 1012.3 0.0
29/03:30pm 28.6 27.0 19.2 56 6.1 NE 26 35 14 19 1012.0 1011.9 0.0
29/03:00pm 29.6 28.2 19.6 55 6.5 ENE 26 35 14 19 1011.8 1011.7 0.0
29/02:30pm 30.4 29.1 19.1 50 7.4 ENE 24 32 13 17 1011.9 1011.8 0.0
29/02:00pm 31.3 30.1 17.6 44 8.8 ENE 20 32 11 17 1012.0 1011.9 0.0
29/01:30pm 30.7 29.4 16.7 43 8.8 ENE 19 30 10 16 1012.1 1012.0 0.0
29/01:00pm 30.7 29.3 17.0 43 8.7 ENE 20 28 11 15 1012.2 1012.1 0.0
29/12:30pm 31.4 31.0 19.4 49 7.9 E 20 32 11 17 1012.5 1012.4 0.0
29/12:00pm 29.9 29.6 19.6 54 6.7 NNE 20 26 11 14 1012.7 1012.6 0.0
29/11:30am 29.4 28.8 20.5 58 5.9 N 24 30 13 16 1012.8 1012.7 0.0
29/11:00am 31.2 32.5 20.2 52 7.3 NE 13 20 7 11 1013.0 1012.9 0.0
29/10:30am 31.3 31.3 17.2 42 9.0 ESE 13 20 7 11 1013.3 1013.2 0.0
29/10:00am 30.5 32.2 18.6 49 7.7 SSW 7 13 4 7 1013.8 1013.7 0.0
29/09:30am 28.7 29.8 17.9 52 6.9 E 9 13 5 7 1014.1 1014.0 0.0
29/09:00am 27.8 30.4 20.4 64 4.9 N 7 13 4 7 1014.1 1014.0 7.0
29/08:30am 26.5 29.2 20.3 68 4.1 N 6 9 3 5 1014.0 1013.9 7.0
29/08:00am 25.7 28.5 20.9 75 3.2 N 7 11 4 6 1013.8 1013.7 7.0
29/07:30am 24.6 27.3 20.7 79 2.6 NNW 7 11 4 6 1013.6 1013.5 7.0
29/07:00am 23.3 26.7 20.2 83 2.0 N 2 7 1 4 1013.5 1013.4 7.0
29/06:30am 22.3 24.9 20.4 89 1.2 E 7 9 4 5 1013.3 1013.2 7.0
29/06:00am 21.2 24.9 20.0 93 0.8 CALM 0 0 0 0 1013.0 1012.9 7.0
29/05:30am 20.4 22.6 19.6 95 0.5 S 7 9 4 5 1012.7 1012.6 7.0
29/05:00am 20.2 21.9 19.4 95 0.5 SE 9 11 5 6 1012.6 1012.5 7.0
29/04:30am 20.6 22.3 19.3 92 0.8 SSE 9 13 5 7 1012.3 1012.2 7.0
29/04:00am 21.3 22.5 19.9 92 0.9 WNW 13 17 7 9 1011.6 1011.5 7.0
29/03:30am 21.4 22.2 19.9 91 1.0 WNW 15 19 8 10 1011.4 1011.3 7.0
29/03:00am 21.7 21.8 20.0 90 1.1 WNW 19 24 10 13 1011.0 1010.9 7.0
29/02:30am 21.7 21.7 20.2 91 1.0 WNW 20 28 11 15 1010.9 1010.8 7.0
29/02:00am 21.9 21.9 20.2 90 1.1 WNW 20 26 11 14 1011.0 1010.9 7.0
29/01:30am 22.0 21.6 20.1 89 1.2 WNW 22 30 12 16 1011.1 1011.0 7.0
29/01:00am 22.3 21.8 20.0 87 1.5 WNW 22 32 12 17 1011.2 1011.1 7.0
29/12:30am 22.7 22.4 19.5 82 2.0 NW 20 30 11 16 1011.3 1011.2 7.0
29/12:01am 23.5 21.2 18.4 73 3.2 NNW 28 46 15 25 1010.3 1010.2 7.0
29/12:00am 23.3 21.1 18.6 75 3.0 NNW 28 33 15 18 1010.3 1010.2 7.0
 
Date/Time
EST
Temp
°C
App
Temp
°C
Dew
Point
Rel
Hum
%
Delta-T
°C
Wind Press
QNH
hPa
Press
MSL
hPa
Rain
since 9 am
mm
Dir
 
Spd
km/h
Gust
km/h
Spd
kts
Gust
kts
28/11:41pm 23.3 20.9 17.3 69 3.7 WNW 26 39 14 21 1011.3 1011.2 7.0
28/11:40pm 23.3 19.1 18.0 72 3.3 NNE 37 56 20 30 1011.2 1011.1 7.0
28/11:36pm 23.4 18.0 17.8 71 3.5 NE 43 48 23 26 1010.5 1010.4 7.0
28/11:30pm 23.5 19.7 18.2 72 3.3 N 35 54 19 29 1010.8 1010.7 7.0
28/11:27pm 24.5 21.3 18.2 68 4.0 NNW 32 54 17 29 1011.2 1011.1 7.0
28/11:00pm 22.3 19.8 20.2 88 1.4 NNW 33 46 18 25 1012.4 1012.3 6.8
28/10:39pm 22.3 20.5 20.4 89 1.2 NW 30 35 16 19 1013.3 1013.2 6.8
28/10:30pm 22.2 18.9 20.1 88 1.4 N 37 48 20 26 1012.2 1012.1 6.8
28/10:23pm 22.2 18.7 20.5 90 1.1 N 39 48 21 26 1012.3 1012.2 6.8
28/10:00pm 22.2 19.0 20.3 89 1.2 NNW 37 44 20 24 1013.1 1013.0 6.2
28/09:52pm 22.3 20.3 20.8 91 1.0 WNW 32 37 17 20 1013.3 1013.2 6.2
28/09:30pm 22.6 18.4 20.5 88 1.4 N 43 52 23 28 1012.1 1012.0 4.6
28/09:28pm 22.6 19.2 20.7 89 1.2 N 39 44 21 24 1012.5 1012.4 4.4
28/09:23pm 22.6 20.0 20.7 89 1.2 NW 35 48 19 26 1012.7 1012.6 4.0
28/09:21pm 22.4 19.7 20.5 89 1.2 NW 35 44 19 24 1012.6 1012.5 4.0
28/09:14pm 22.6 19.1 20.5 88 1.4 N 39 61 21 33 1011.3 1011.2 3.4
28/09:13pm 22.6 19.6 20.7 89 1.2 N 37 48 20 26 1011.7 1011.6 3.4
28/09:12pm 22.6 19.6 20.7 89 1.2 N 37 48 20 26 1011.9 1011.8 3.4
28/09:02pm 22.8 19.4 20.7 88 1.4 N 39 48 21 26 1011.7 1011.6 1.8
28/09:00pm 22.8 19.7 20.5 87 1.5 N 37 48 20 26 1011.7 1011.6 1.4
28/08:58pm 23.0 20.8 20.7 87 1.5 N 33 48 18 26 1012.0 1011.9 1.0
28/08:30pm 23.4 23.6 20.5 84 1.9 NNE 20 28 11 15 1012.9 1012.8 0.2
28/08:00pm 24.0 22.3 19.9 78 2.6 NE 28 37 15 20 1013.1 1013.0 0.0
28/07:30pm 23.9 25.6 20.2 80 2.4 E 11 20 6 11 1013.5 1013.4 0.0
28/07:00pm 23.7 23.9 20.2 81 2.3 N 19 28 10 15 1011.7 1011.6 0.0
28/06:30pm 23.9 21.7 20.4 81 2.3 N 32 39 17 21 1010.7 1010.6 0.0
28/06:00pm 23.9 20.7 20.2 80 2.4 N 37 48 20 26 1010.3 1010.2 0.0

Other Formats:

Comma delimited format used in spreadsheet applications
http://www.bom.gov.au/fwo/IDQ60801/IDQ60801.94387.axf

JavaScript Object Notation format (JSON) in row-major order
http://www.bom.gov.au/fwo/IDQ60801/IDQ60801.94387.json